sensor_id;sensor_type;location;lat;lon;timestamp;pressure;altitude;pressure_sealevel;temperature;humidity
61018;BME280;48171;51.550;5.434;2023-04-08T00:00:39;102258.34;;;8.00;100.00
61018;BME280;48171;51.550;5.434;2023-04-08T00:03:05;102260.16;;;8.03;100.00
61018;BME280;48171;51.550;5.434;2023-04-08T00:05:30;102264.59;;;8.06;100.00
61018;BME280;48171;51.550;5.434;2023-04-08T00:07:55;102267.28;;;8.07;100.00
61018;BME280;48171;51.550;5.434;2023-04-08T00:10:23;102262.88;;;8.08;100.00
61018;BME280;48171;51.550;5.434;2023-04-08T00:12:50;102269.91;;;8.07;100.00
61018;BME280;48171;51.550;5.434;2023-04-08T00:15:15;102261.13;;;8.07;100.00
61018;BME280;48171;51.550;5.434;2023-04-08T00:17:41;102262.06;;;8.09;100.00
61018;BME280;48171;51.550;5.434;2023-04-08T00:20:07;102267.31;;;8.09;100.00
61018;BME280;48171;51.550;5.434;2023-04-08T00:22:32;102255.03;;;8.09;100.00
61018;BME280;48171;51.550;5.434;2023-04-08T00:24:58;102261.16;;;8.08;100.00
61018;BME280;48171;51.550;5.434;2023-04-08T00:27:23;102262.97;;;8.11;100.00
61018;BME280;48171;51.550;5.434;2023-04-08T00:29:51;102256.84;;;8.10;100.00
61018;BME280;48171;51.550;5.434;2023-04-08T00:32:17;102264.84;;;8.15;100.00
61018;BME280;48171;51.550;5.434;2023-04-08T00:34:42;102259.56;;;8.15;100.00
61018;BME280;48171;51.550;5.434;2023-04-08T00:37:08;102256.94;;;8.15;100.00
61018;BME280;48171;51.550;5.434;2023-04-08T00:39:33;102269.25;;;8.16;100.00
61018;BME280;48171;51.550;5.434;2023-04-08T00:41:59;102270.16;;;8.16;100.00
61018;BME280;48171;51.550;5.434;2023-04-08T00:44:26;102267.47;;;8.15;100.00
61018;BME280;48171;51.550;5.434;2023-04-08T00:46:52;102270.09;;;8.15;100.00
61018;BME280;48171;51.550;5.434;2023-04-08T00:49:17;102270.06;;;8.13;100.00
61018;BME280;48171;51.550;5.434;2023-04-08T00:51:43;102270.94;;;8.12;100.00
61018;BME280;48171;51.550;5.434;2023-04-08T00:54:08;102273.66;;;8.17;100.00
61018;BME280;48171;51.550;5.434;2023-04-08T00:56:34;102272.78;;;8.16;100.00
61018;BME280;48171;51.550;5.434;2023-04-08T00:59:00;102273.63;;;8.15;100.00
61018;BME280;48171;51.550;5.434;2023-04-08T01:01:33;102279.75;;;8.14;100.00
61018;BME280;48171;51.550;5.434;2023-04-08T01:04:14;102274.50;;;8.16;100.00
61018;BME280;48171;51.550;5.434;2023-04-08T01:06:58;102278.06;;;8.18;100.00
61018;BME280;48171;51.550;5.434;2023-04-08T01:09:29;102283.38;;;8.19;100.00
61018;BME280;48171;51.550;5.434;2023-04-08T01:11:57;102278.06;;;8.18;100.00
61018;BME280;48171;51.550;5.434;2023-04-08T01:14:25;102273.72;;;8.18;100.00
61018;BME280;48171;51.550;5.434;2023-04-08T01:16:54;102274.50;;;8.16;100.00
61018;BME280;48171;51.550;5.434;2023-04-08T01:19:27;102274.59;;;8.19;100.00
61018;BME280;48171;51.550;5.434;2023-04-08T01:21:59;102277.22;;;8.19;100.00
61018;BME280;48171;51.550;5.434;2023-04-08T01:24:28;102279.00;;;8.20;100.00
61018;BME280;48171;51.550;5.434;2023-04-08T01:26:55;102285.09;;;8.17;100.00
61018;BME280;48171;51.550;5.434;2023-04-08T01:29:23;102278.84;;;8.14;100.00
61018;BME280;48171;51.550;5.434;2023-04-08T01:31:49;102276.25;;;8.15;100.00
61018;BME280;48171;51.550;5.434;2023-04-08T01:34:15;102278.88;;;8.15;100.00
61018;BME280;48171;51.550;5.434;2023-04-08T01:36:44;102278.88;;;8.15;100.00
61018;BME280;48171;51.550;5.434;2023-04-08T01:39:11;102284.19;;;8.17;100.00
61018;BME280;48171;51.550;5.434;2023-04-08T01:41:38;102279.81;;;8.17;100.00
61018;BME280;48171;51.550;5.434;2023-04-08T01:44:04;102287.72;;;8.17;100.00
61018;BME280;48171;51.550;5.434;2023-04-08T01:46:31;102294.72;;;8.17;100.00
61018;BME280;48171;51.550;5.434;2023-04-08T01:48:58;102285.94;;;8.16;100.00
61018;BME280;48171;51.550;5.434;2023-04-08T01:51:24;102288.59;;;8.16;100.00
61018;BME280;48171;51.550;5.434;2023-04-08T01:53:51;102291.22;;;8.16;100.00
61018;BME280;48171;51.550;5.434;2023-04-08T01:56:18;102288.50;;;8.13;100.00
61018;BME280;48171;51.550;5.434;2023-04-08T01:58:50;102292.06;;;8.15;100.00
61018;BME280;48171;51.550;5.434;2023-04-08T02:01:19;102278.78;;;8.11;100.00
61018;BME280;48171;51.550;5.434;2023-04-08T02:03:46;102291.22;;;8.16;100.00
61018;BME280;48171;51.550;5.434;2023-04-08T02:06:12;102290.28;;;8.14;100.00
61018;BME280;48171;51.550;5.434;2023-04-08T02:08:37;102285.91;;;8.15;100.00
61018;BME280;48171;51.550;5.434;2023-04-08T02:11:02;102284.88;;;8.10;100.00
61018;BME280;48171;51.550;5.434;2023-04-08T02:13:29;102288.50;;;8.13;100.00
61018;BME280;48171;51.550;5.434;2023-04-08T02:16:09;102291.22;;;8.18;100.00
61018;BME280;48171;51.550;5.434;2023-04-08T02:18:42;102294.69;;;8.15;100.00
61018;BME280;48171;51.550;5.434;2023-04-08T02:21:14;102296.44;;;8.15;100.00
61018;BME280;48171;51.550;5.434;2023-04-08T02:23:41;102290.19;;;8.11;100.00
61018;BME280;48171;51.550;5.434;2023-04-08T02:26:14;102286.75;;;8.14;100.00
61018;BME280;48171;51.550;5.434;2023-04-08T02:28:41;102297.31;;;8.15;100.00
61018;BME280;48171;51.550;5.434;2023-04-08T02:31:11;102296.34;;;8.12;100.00
61018;BME280;48171;51.550;5.434;2023-04-08T02:33:40;102295.56;;;8.16;100.00
61018;BME280;48171;51.550;5.434;2023-04-08T02:36:07;102298.97;;;8.12;100.00
61018;BME280;48171;51.550;5.434;2023-04-08T02:38:32;102300.78;;;8.13;100.00
61018;BME280;48171;51.550;5.434;2023-04-08T02:40:58;102298.09;;;8.11;100.00
61018;BME280;48171;51.550;5.434;2023-04-08T02:43:24;102305.16;;;8.12;100.00
61018;BME280;48171;51.550;5.434;2023-04-08T02:45:56;102306.91;;;8.13;100.00
61018;BME280;48171;51.550;5.434;2023-04-08T02:48:21;102304.28;;;8.13;100.00
61018;BME280;48171;51.550;5.434;2023-04-08T02:50:46;102306.09;;;8.14;100.00
61018;BME280;48171;51.550;5.434;2023-04-08T02:53:12;102309.56;;;8.13;100.00
61018;BME280;48171;51.550;5.434;2023-04-08T02:55:37;102314.81;;;8.13;100.00
61018;BME280;48171;51.550;5.434;2023-04-08T02:58:03;102305.09;;;8.11;100.00
61018;BME280;48171;51.550;5.434;2023-04-08T03:00:28;102308.63;;;8.11;100.00
61018;BME280;48171;51.550;5.434;2023-04-08T03:02:54;102313.88;;;8.11;100.00
61018;BME280;48171;51.550;5.434;2023-04-08T03:05:19;102313.97;;;8.14;100.00
61018;BME280;48171;51.550;5.434;2023-04-08T03:07:45;102309.56;;;8.13;100.00
61018;BME280;48171;51.550;5.434;2023-04-08T03:10:11;102309.56;;;8.13;100.00
61018;BME280;48171;51.550;5.434;2023-04-08T03:12:36;102309.50;;;8.12;100.00
61018;BME280;48171;51.550;5.434;2023-04-08T03:15:02;102305.16;;;8.12;100.00
61018;BME280;48171;51.550;5.434;2023-04-08T03:17:28;102308.56;;;8.10;100.00
61018;BME280;48171;51.550;5.434;2023-04-08T03:19:53;102304.16;;;8.09;100.00
61018;BME280;48171;51.550;5.434;2023-04-08T03:22:19;102314.69;;;8.09;100.00
61018;BME280;48171;51.550;5.434;2023-04-08T03:24:44;102308.44;;;8.05;100.00
61018;BME280;48171;51.550;5.434;2023-04-08T03:27:09;102316.44;;;8.08;100.00
61018;BME280;48171;51.550;5.434;2023-04-08T03:29:36;102306.69;;;8.04;100.00
61018;BME280;48171;51.550;5.434;2023-04-08T03:32:01;102310.25;;;8.06;100.00
61018;BME280;48171;51.550;5.434;2023-04-08T03:34:27;102309.28;;;8.02;100.00
61018;BME280;48171;51.550;5.434;2023-04-08T03:36:52;102311.78;;;7.98;100.00
61018;BME280;48171;51.550;5.434;2023-04-08T03:39:17;102312.72;;;8.00;100.00
61018;BME280;48171;51.550;5.434;2023-04-08T03:41:43;102307.41;;;7.98;100.00
61018;BME280;48171;51.550;5.434;2023-04-08T03:44:08;102307.34;;;7.97;100.00
61018;BME280;48171;51.550;5.434;2023-04-08T03:46:33;102310.72;;;7.91;100.00
61018;BME280;48171;51.550;5.434;2023-04-08T03:48:59;102311.56;;;7.90;100.00
61018;BME280;48171;51.550;5.434;2023-04-08T03:51:24;102303.53;;;7.86;100.00
61018;BME280;48171;51.550;5.434;2023-04-08T03:53:49;102311.41;;;7.86;100.00
61018;BME280;48171;51.550;5.434;2023-04-08T03:56:14;102309.56;;;7.81;100.00
61018;BME280;48171;51.550;5.434;2023-04-08T03:58:40;102315.63;;;7.79;100.00
61018;BME280;48171;51.550;5.434;2023-04-08T04:01:05;102319.97;;;7.77;100.00
61018;BME280;48171;51.550;5.434;2023-04-08T04:03:30;102326.88;;;7.73;100.00
61018;BME280;48171;51.550;5.434;2023-04-08T04:05:56;102325.97;;;7.73;100.00
61018;BME280;48171;51.550;5.434;2023-04-08T04:08:21;102325.94;;;7.71;100.00
61018;BME280;48171;51.550;5.434;2023-04-08T04:10:46;102328.59;;;7.73;100.00
61018;BME280;48171;51.550;5.434;2023-04-08T04:13:12;102319.84;;;7.72;100.00
61018;BME280;48171;51.550;5.434;2023-04-08T04:15:38;102321.59;;;7.72;100.00
61018;BME280;48171;51.550;5.434;2023-04-08T04:18:04;102318.84;;;7.69;100.00
61018;BME280;48171;51.550;5.434;2023-04-08T04:20:29;102325.97;;;7.73;100.00
61018;BME280;48171;51.550;5.434;2023-04-08T04:22:55;102338.31;;;7.75;100.00
61018;BME280;48171;51.550;5.434;2023-04-08T04:25:20;102339.31;;;7.79;100.00
61018;BME280;48171;51.550;5.434;2023-04-08T04:27:45;102340.19;;;7.79;100.00
61018;BME280;48171;51.550;5.434;2023-04-08T04:30:11;102345.44;;;7.78;100.00
61018;BME280;48171;51.550;5.434;2023-04-08T04:32:39;102348.06;;;7.78;100.00
61018;BME280;48171;51.550;5.434;2023-04-08T04:35:05;102349.75;;;7.76;100.00
61018;BME280;48171;51.550;5.434;2023-04-08T04:37:31;102351.47;;;7.75;100.00
61018;BME280;48171;51.550;5.434;2023-04-08T04:39:56;102349.78;;;7.77;100.00
61018;BME280;48171;51.550;5.434;2023-04-08T04:42:21;102358.59;;;7.78;100.00
61018;BME280;48171;51.550;5.434;2023-04-08T04:44:46;102355.81;;;7.73;100.00
61018;BME280;48171;51.550;5.434;2023-04-08T04:47:12;102366.44;;;7.76;100.00
61018;BME280;48171;51.550;5.434;2023-04-08T04:49:37;102363.84;;;7.78;100.00
61018;BME280;48171;51.550;5.434;2023-04-08T04:52:04;102368.25;;;7.79;100.00
61018;BME280;48171;51.550;5.434;2023-04-08T04:54:30;102370.06;;;7.81;100.00
61018;BME280;48171;51.550;5.434;2023-04-08T04:56:55;102371.00;;;7.84;100.00
61018;BME280;48171;51.550;5.434;2023-04-08T04:59:20;102373.63;;;7.82;100.00
61018;BME280;48171;51.550;5.434;2023-04-08T05:01:45;102373.63;;;7.82;100.00
61018;BME280;48171;51.550;5.434;2023-04-08T05:04:11;102378.00;;;7.83;100.00
61018;BME280;48171;51.550;5.434;2023-04-08T05:06:36;102382.41;;;7.82;100.00
61018;BME280;48171;51.550;5.434;2023-04-08T05:09:01;102376.28;;;7.84;100.00
61018;BME280;48171;51.550;5.434;2023-04-08T05:11:27;102385.09;;;7.86;100.00
61018;BME280;48171;51.550;5.434;2023-04-08T05:13:52;102382.41;;;7.82;100.00
61018;BME280;48171;51.550;5.434;2023-04-08T05:16:17;102385.06;;;7.84;100.00
61018;BME280;48171;51.550;5.434;2023-04-08T05:18:43;102383.22;;;7.81;100.00
61018;BME280;48171;51.550;5.434;2023-04-08T05:21:08;102390.25;;;7.81;100.00
61018;BME280;48171;51.550;5.434;2023-04-08T05:23:34;102386.63;;;7.77;100.00
61018;BME280;48171;51.550;5.434;2023-04-08T05:25:59;102385.69;;;7.75;100.00
61018;BME280;48171;51.550;5.434;2023-04-08T05:28:25;102397.19;;;7.79;100.00
61018;BME280;48171;51.550;5.434;2023-04-08T05:30:51;102395.44;;;7.79;100.00
61018;BME280;48171;51.550;5.434;2023-04-08T05:33:17;102393.81;;;7.83;100.00
61018;BME280;48171;51.550;5.434;2023-04-08T05:35:42;102395.56;;;7.82;100.00
61018;BME280;48171;51.550;5.434;2023-04-08T05:38:08;102395.56;;;7.82;100.00
61018;BME280;48171;51.550;5.434;2023-04-08T05:40:33;102399.88;;;7.80;100.00
61018;BME280;48171;51.550;5.434;2023-04-08T05:42:58;102392.91;;;7.82;100.00
61018;BME280;48171;51.550;5.434;2023-04-08T05:45:24;102396.38;;;7.80;100.00
61018;BME280;48171;51.550;5.434;2023-04-08T05:47:49;102399.00;;;7.81;100.00
61018;BME280;48171;51.550;5.434;2023-04-08T05:50:14;102405.28;;;7.85;100.00
61018;BME280;48171;51.550;5.434;2023-04-08T05:52:44;102403.56;;;7.87;100.00
61018;BME280;48171;51.550;5.434;2023-04-08T05:55:10;102410.63;;;7.88;100.00
61018;BME280;48171;51.550;5.434;2023-04-08T05:57:36;102408.06;;;7.91;100.00
61018;BME280;48171;51.550;5.434;2023-04-08T06:00:06;102404.50;;;7.89;100.00
61018;BME280;48171;51.550;5.434;2023-04-08T06:02:32;102413.34;;;7.91;100.00
61018;BME280;48171;51.550;5.434;2023-04-08T06:04:57;102418.72;;;7.94;100.00
61018;BME280;48171;51.550;5.434;2023-04-08T06:07:23;102421.41;;;7.96;100.00
61018;BME280;48171;51.550;5.434;2023-04-08T06:09:48;102414.28;;;7.93;100.00
61018;BME280;48171;51.550;5.434;2023-04-08T06:12:13;102415.22;;;7.95;100.00
61018;BME280;48171;51.550;5.434;2023-04-08T06:14:38;102422.34;;;7.98;100.00
61018;BME280;48171;51.550;5.434;2023-04-08T06:17:04;102424.03;;;7.96;100.00
61018;BME280;48171;51.550;5.434;2023-04-08T06:19:30;102422.34;;;7.99;100.00
61018;BME280;48171;51.550;5.434;2023-04-08T06:21:55;102425.97;;;8.03;100.00
61018;BME280;48171;51.550;5.434;2023-04-08T06:24:26;102429.53;;;8.05;100.00
61018;BME280;48171;51.550;5.434;2023-04-08T06:26:54;102431.34;;;8.08;100.00
61018;BME280;48171;51.550;5.434;2023-04-08T06:29:20;102440.28;;;8.13;100.00
61018;BME280;48171;51.550;5.434;2023-04-08T06:31:46;102442.13;;;8.15;100.00
61018;BME280;48171;51.550;5.434;2023-04-08T06:34:11;102443.94;;;8.18;100.00
61018;BME280;48171;51.550;5.434;2023-04-08T06:36:36;102450.19;;;8.21;100.00
61018;BME280;48171;51.550;5.434;2023-04-08T06:39:01;102449.41;;;8.24;100.00
61018;BME280;48171;51.550;5.434;2023-04-08T06:41:27;102457.31;;;8.24;100.00
61018;BME280;48171;51.550;5.434;2023-04-08T06:43:52;102452.97;;;8.26;100.00
61018;BME280;48171;51.550;5.434;2023-04-08T06:46:18;102458.38;;;8.31;100.00
61018;BME280;48171;51.550;5.434;2023-04-08T06:48:43;102462.88;;;8.35;100.00
61018;BME280;48171;51.550;5.434;2023-04-08T06:51:08;102465.41;;;8.32;100.00
61018;BME280;48171;51.550;5.434;2023-04-08T06:53:34;102464.41;;;8.27;100.00
61018;BME280;48171;51.550;5.434;2023-04-08T06:56:00;102463.53;;;8.28;100.00
61018;BME280;48171;51.550;5.434;2023-04-08T06:58:25;102466.22;;;8.29;100.00
61018;BME280;48171;51.550;5.434;2023-04-08T07:00:52;102469.84;;;8.33;100.00
61018;BME280;48171;51.550;5.434;2023-04-08T07:03:18;102469.91;;;8.36;100.00
61018;BME280;48171;51.550;5.434;2023-04-08T07:05:43;102481.50;;;8.41;100.00
61018;BME280;48171;51.550;5.434;2023-04-08T07:08:09;102475.97;;;8.33;100.00
61018;BME280;48171;51.550;5.434;2023-04-08T07:10:35;102476.88;;;8.34;100.00
61018;BME280;48171;51.550;5.434;2023-04-08T07:13:00;102487.56;;;8.40;100.00
61018;BME280;48171;51.550;5.434;2023-04-08T07:15:26;102489.47;;;8.44;100.00
61018;BME280;48171;51.550;5.434;2023-04-08T07:17:51;102482.44;;;8.43;100.00
61018;BME280;48171;51.550;5.434;2023-04-08T07:20:16;102489.47;;;8.43;100.00
61018;BME280;48171;51.550;5.434;2023-04-08T07:22:42;102489.47;;;8.43;100.00
61018;BME280;48171;51.550;5.434;2023-04-08T07:25:07;102496.50;;;8.44;100.00
61018;BME280;48171;51.550;5.434;2023-04-08T07:27:33;102500.94;;;8.46;100.00
61018;BME280;48171;51.550;5.434;2023-04-08T07:29:59;102499.25;;;8.48;100.00
61018;BME280;48171;51.550;5.434;2023-04-08T07:32:25;102512.56;;;8.53;100.00
61018;BME280;48171;51.550;5.434;2023-04-08T07:34:50;102513.50;;;8.55;100.00
61018;BME280;48171;51.550;5.434;2023-04-08T07:37:15;102513.59;;;8.58;100.00
61018;BME280;48171;51.550;5.434;2023-04-08T07:39:42;102511.06;;;8.61;100.00
61018;BME280;48171;51.550;5.434;2023-04-08T07:42:07;102514.66;;;8.65;100.00
61018;BME280;48171;51.550;5.434;2023-04-08T07:44:32;102513.81;;;8.66;100.00
61018;BME280;48171;51.550;5.434;2023-04-08T07:46:57;102512.16;;;8.69;100.00
61018;BME280;48171;51.550;5.434;2023-04-08T07:49:23;102523.50;;;8.67;100.00
61018;BME280;48171;51.550;5.434;2023-04-08T07:51:48;102513.75;;;8.64;100.00
61018;BME280;48171;51.550;5.434;2023-04-08T07:54:13;102526.75;;;8.58;100.00
61018;BME280;48171;51.550;5.434;2023-04-08T07:56:42;102525.69;;;8.51;100.00
61018;BME280;48171;51.550;5.434;2023-04-08T07:59:11;102527.34;;;8.48;100.00
61018;BME280;48171;51.550;5.434;2023-04-08T08:01:37;102525.75;;;8.53;100.00
61018;BME280;48171;51.550;5.434;2023-04-08T08:04:02;102528.50;;;8.57;100.00
61018;BME280;48171;51.550;5.434;2023-04-08T08:06:28;102530.31;;;8.58;100.00
61018;BME280;48171;51.550;5.434;2023-04-08T08:08:54;102532.97;;;8.60;100.00
61018;BME280;48171;51.550;5.434;2023-04-08T08:11:19;102528.63;;;8.62;100.00
61018;BME280;48171;51.550;5.434;2023-04-08T08:13:45;102537.56;;;8.67;100.00
61018;BME280;48171;51.550;5.434;2023-04-08T08:16:10;102547.34;;;8.71;100.00
61018;BME280;48171;51.550;5.434;2023-04-08T08:18:36;102548.88;;;8.63;100.00
61018;BME280;48171;51.550;5.434;2023-04-08T08:21:04;102546.19;;;8.61;100.00
61018;BME280;48171;51.550;5.434;2023-04-08T08:23:29;102548.94;;;8.66;100.00
61018;BME280;48171;51.550;5.434;2023-04-08T08:25:59;102546.25;;;8.63;100.00
61018;BME280;48171;51.550;5.434;2023-04-08T08:28:26;102547.81;;;8.56;100.00
61018;BME280;48171;51.550;5.434;2023-04-08T08:30:51;102555.63;;;8.53;100.00
61018;BME280;48171;51.550;5.434;2023-04-08T08:33:16;102551.91;;;8.47;100.00
61018;BME280;48171;51.550;5.434;2023-04-08T08:35:41;102555.38;;;8.46;100.00
61018;BME280;48171;51.550;5.434;2023-04-08T08:38:07;102556.25;;;8.45;100.00
61018;BME280;48171;51.550;5.434;2023-04-08T08:40:32;102563.28;;;8.46;100.00
61018;BME280;48171;51.550;5.434;2023-04-08T08:42:57;102559.00;;;8.49;100.00
61018;BME280;48171;51.550;5.434;2023-04-08T08:45:25;102565.16;;;8.50;100.00
61018;BME280;48171;51.550;5.434;2023-04-08T08:47:50;102570.38;;;8.48;100.00
61018;BME280;48171;51.550;5.434;2023-04-08T08:50:15;102567.97;;;8.54;100.00
61018;BME280;48171;51.550;5.434;2023-04-08T08:52:47;102569.84;;;8.58;100.00
61018;BME280;48171;51.550;5.434;2023-04-08T08:55:13;102567.22;;;8.60;100.00
61018;BME280;48171;51.550;5.434;2023-04-08T08:57:38;102567.38;;;8.65;100.00
61018;BME280;48171;51.550;5.434;2023-04-08T09:00:04;102564.75;;;8.66;100.00
61018;BME280;48171;51.550;5.434;2023-04-08T09:02:30;102571.91;;;8.70;100.00
61018;BME280;48171;51.550;5.434;2023-04-08T09:05:03;102571.06;;;8.71;100.00
61018;BME280;48171;51.550;5.434;2023-04-08T09:07:30;102588.47;;;8.66;100.00
61018;BME280;48171;51.550;5.434;2023-04-08T09:09:59;102578.88;;;8.68;100.00
61018;BME280;48171;51.550;5.434;2023-04-08T09:12:25;102587.16;;;8.82;100.00
61018;BME280;48171;51.550;5.434;2023-04-08T09:15:08;102593.59;;;8.92;100.00
61018;BME280;48171;51.550;5.434;2023-04-08T09:17:36;102596.34;;;8.95;100.00
61018;BME280;48171;51.550;5.434;2023-04-08T09:20:07;102593.66;;;8.93;100.00
61018;BME280;48171;51.550;5.434;2023-04-08T09:22:59;102598.91;;;8.93;100.00
61018;BME280;48171;51.550;5.434;2023-04-08T09:25:30;102602.66;;;9.01;100.00
61018;BME280;48171;51.550;5.434;2023-04-08T09:27:56;102605.63;;;9.14;100.00
61018;BME280;48171;51.550;5.434;2023-04-08T09:30:23;102604.97;;;9.23;100.00
61018;BME280;48171;51.550;5.434;2023-04-08T09:32:53;102602.50;;;9.29;100.00
61018;BME280;48171;51.550;5.434;2023-04-08T09:35:19;102593.75;;;9.30;100.00
61018;BME280;48171;51.550;5.434;2023-04-08T09:37:45;102605.91;;;9.25;100.00
61018;BME280;48171;51.550;5.434;2023-04-08T09:40:12;102607.59;;;9.21;100.00
61018;BME280;48171;51.550;5.434;2023-04-08T09:42:40;102606.84;;;9.27;100.00
61018;BME280;48171;51.550;5.434;2023-04-08T09:45:08;102605.97;;;9.26;100.00
61018;BME280;48171;51.550;5.434;2023-04-08T09:47:41;102614.69;;;9.24;100.00
61018;BME280;48171;51.550;5.434;2023-04-08T09:50:07;102612.00;;;9.22;100.00
61018;BME280;48171;51.550;5.434;2023-04-08T09:52:41;102611.13;;;9.21;100.00
61018;BME280;48171;51.550;5.434;2023-04-08T09:55:08;102607.44;;;9.16;100.00
61018;BME280;48171;51.550;5.434;2023-04-08T10:00:15;102619.53;;;9.40;100.00
61018;BME280;48171;51.550;5.434;2023-04-08T10:03:10;102611.00;;;9.50;100.00
61018;BME280;48171;51.550;5.434;2023-04-08T10:05:40;102612.28;;;9.66;100.00
61018;BME280;48171;51.550;5.434;2023-04-08T10:08:06;102616.84;;;9.72;100.00
61018;BME280;48171;51.550;5.434;2023-04-08T10:10:37;102620.56;;;9.80;100.00
61018;BME280;48171;51.550;5.434;2023-04-08T10:13:03;102618.84;;;9.82;100.00
61018;BME280;48171;51.550;5.434;2023-04-08T10:15:30;102612.88;;;9.91;100.00
61018;BME280;48171;51.550;5.434;2023-04-08T10:23:01;102615.31;;;10.19;100.00
61018;BME280;48171;51.550;5.434;2023-04-08T10:25:33;102607.38;;;10.19;97.91
61018;BME280;48171;51.550;5.434;2023-04-08T10:30:48;102606.69;;;10.27;99.88
61018;BME280;48171;51.550;5.434;2023-04-08T10:33:17;102618.84;;;10.18;100.00
61018;BME280;48171;51.550;5.434;2023-04-08T10:35:53;102611.56;;;10.10;99.57
61018;BME280;48171;51.550;5.434;2023-04-08T10:38:19;102612.50;;;10.12;99.63
61018;BME280;48171;51.550;5.434;2023-04-08T10:40:47;102614.19;;;10.08;98.06
61018;BME280;48171;51.550;5.434;2023-04-08T10:43:12;102610.72;;;10.11;99.76
61018;BME280;48171;51.550;5.434;2023-04-08T10:45:39;102602.09;;;10.19;99.74
61018;BME280;48171;51.550;5.434;2023-04-08T10:48:22;102602.47;;;10.33;99.67
61018;BME280;48171;51.550;5.434;2023-04-08T10:51:02;102598.09;;;10.35;98.12
61018;BME280;48171;51.550;5.434;2023-04-08T10:53:35;102607.44;;;10.21;96.77
61018;BME280;48171;51.550;5.434;2023-04-08T10:58:32;102590.00;;;9.91;98.05
61018;BME280;48171;51.550;5.434;2023-04-08T11:01:05;102588.13;;;9.86;98.05
61018;BME280;48171;51.550;5.434;2023-04-08T11:03:33;102584.44;;;9.79;96.02
61018;BME280;48171;51.550;5.434;2023-04-08T11:06:02;102587.16;;;9.82;97.70
61018;BME280;48171;51.550;5.434;2023-04-08T11:08:31;102578.50;;;9.88;98.62
61018;BME280;48171;51.550;5.434;2023-04-08T11:10:57;102584.81;;;9.94;98.65
61018;BME280;48171;51.550;5.434;2023-04-08T11:13:25;102581.44;;;10.01;98.13
61018;BME280;48171;51.550;5.434;2023-04-08T11:15:51;102584.25;;;10.09;96.70
61018;BME280;48171;51.550;5.434;2023-04-08T11:18:16;102586.13;;;10.13;98.13
61018;BME280;48171;51.550;5.434;2023-04-08T11:20:43;102586.16;;;10.15;99.82
61018;BME280;48171;51.550;5.434;2023-04-08T11:23:15;102584.44;;;10.17;97.08
61018;BME280;48171;51.550;5.434;2023-04-08T11:25:42;102579.22;;;10.18;98.46
61018;BME280;48171;51.550;5.434;2023-04-08T11:28:09;102574.84;;;10.20;96.39
61018;BME280;48171;51.550;5.434;2023-04-08T11:30:35;102566.97;;;10.22;93.74
61018;BME280;48171;51.550;5.434;2023-04-08T11:33:01;102577.66;;;10.28;97.59
61018;BME280;48171;51.550;5.434;2023-04-08T11:35:29;102571.63;;;10.32;95.44
61018;BME280;48171;51.550;5.434;2023-04-08T11:37:56;102574.28;;;10.34;92.13
61018;BME280;48171;51.550;5.434;2023-04-08T11:40:22;102577.84;;;10.34;92.45
61018;BME280;48171;51.550;5.434;2023-04-08T11:42:48;102577.97;;;10.40;94.13
61018;BME280;48171;51.550;5.434;2023-04-08T11:45:17;102579.81;;;10.46;93.98
61018;BME280;48171;51.550;5.434;2023-04-08T11:47:44;102587.09;;;10.55;92.55
61018;BME280;48171;51.550;5.434;2023-04-08T11:50:09;102591.66;;;10.64;91.76
61018;BME280;48171;51.550;5.434;2023-04-08T11:55:20;102587.47;;;10.73;88.67
61018;BME280;48171;51.550;5.434;2023-04-08T11:57:45;102579.56;;;10.76;89.87
61018;BME280;48171;51.550;5.434;2023-04-08T12:00:11;102574.41;;;10.81;87.78
61018;BME280;48171;51.550;5.434;2023-04-08T12:02:36;102579.78;;;10.86;88.38
61018;BME280;48171;51.550;5.434;2023-04-08T12:05:02;102577.22;;;10.90;87.44
61018;BME280;48171;51.550;5.434;2023-04-08T12:07:27;102567.59;;;10.94;88.15
61018;BME280;48171;51.550;5.434;2023-04-08T12:09:52;102575.63;;;11.00;87.03
61018;BME280;48171;51.550;5.434;2023-04-08T12:12:17;102564.22;;;11.02;86.51
61018;BME280;48171;51.550;5.434;2023-04-08T12:14:43;102566.06;;;11.05;83.60
61018;BME280;48171;51.550;5.434;2023-04-08T12:17:08;102566.16;;;11.13;83.82
61018;BME280;48171;51.550;5.434;2023-04-08T12:19:33;102561.88;;;11.18;83.92
61018;BME280;48171;51.550;5.434;2023-04-08T12:21:58;102562.78;;;11.20;79.81
61018;BME280;48171;51.550;5.434;2023-04-08T12:24:24;102561.16;;;11.28;84.82
61018;BME280;48171;51.550;5.434;2023-04-08T12:26:49;102562.16;;;11.35;83.21
61018;BME280;48171;51.550;5.434;2023-04-08T12:29:14;102565.75;;;11.38;82.92
61018;BME280;48171;51.550;5.434;2023-04-08T12:31:40;102560.53;;;11.43;76.01
61018;BME280;48171;51.550;5.434;2023-04-08T12:34:05;102559.84;;;11.53;79.78
61018;BME280;48171;51.550;5.434;2023-04-08T12:36:31;102563.50;;;11.63;78.28
61018;BME280;48171;51.550;5.434;2023-04-08T12:38:57;102560.94;;;11.66;75.22
61018;BME280;48171;51.550;5.434;2023-04-08T12:41:22;102558.31;;;11.69;75.82
61018;BME280;48171;51.550;5.434;2023-04-08T12:43:48;102561.97;;;11.76;75.52
61018;BME280;48171;51.550;5.434;2023-04-08T12:46:13;102556.81;;;11.85;78.49
61018;BME280;48171;51.550;5.434;2023-04-08T12:48:38;102557.84;;;11.92;72.73
61018;BME280;48171;51.550;5.434;2023-04-08T12:51:04;102549.03;;;11.94;69.48
61018;BME280;48171;51.550;5.434;2023-04-08T12:53:29;102550.09;;;12.07;73.79
61018;BME280;48171;51.550;5.434;2023-04-08T12:55:55;102545.00;;;12.21;71.10
61018;BME280;48171;51.550;5.434;2023-04-08T12:58:22;102543.41;;;12.35;72.08
61018;BME280;48171;51.550;5.434;2023-04-08T13:00:49;102544.63;;;12.62;70.68
61018;BME280;48171;51.550;5.434;2023-04-08T13:03:14;102545.81;;;12.87;71.09